createdAt,value
2022-11-27T00:02:11.488Z,96009.75
2022-11-27T00:04:38.516Z,96012.38
2022-11-27T00:07:05.796Z,96011.41
2022-11-27T00:09:33.432Z,96014.22
2022-11-27T00:12:00.050Z,96013.41
2022-11-27T00:17:09.148Z,96013.06
2022-11-27T00:19:35.784Z,96019.72
2022-11-27T00:22:09.765Z,96014.34
2022-11-27T00:24:36.319Z,96012.38
2022-11-27T00:27:02.922Z,96007.53
2022-11-27T00:29:31.082Z,96010.81
2022-11-27T00:31:58.730Z,96017.16
2022-11-27T00:34:30.928Z,96001.69
2022-11-27T00:36:57.553Z,95993.22
2022-11-27T00:39:24.164Z,95990.16
2022-11-27T00:41:50.779Z,95997.31
2022-11-27T00:44:17.466Z,95993.75
2022-11-27T00:49:26.720Z,95988.56
2022-11-27T00:51:53.247Z,95984.03
2022-11-27T00:54:22.852Z,95969.91
2022-11-27T00:56:49.591Z,95965.97
2022-11-27T00:59:16.935Z,95962.59
2022-11-27T01:01:44.627Z,95966.66
2022-11-27T01:04:12.179Z,95962.75
2022-11-27T01:06:53.639Z,95962.41
2022-11-27T01:09:29.446Z,95953.34
2022-11-27T01:11:55.990Z,95959.19
2022-11-27T01:14:23.077Z,95949.59
2022-11-27T01:16:49.779Z,95948.59
2022-11-27T01:19:20.205Z,95953.00
2022-11-27T01:21:46.961Z,95948.78
2022-11-27T01:24:14.419Z,95945.84
2022-11-27T01:26:42.953Z,95944.72
2022-11-27T01:29:12.013Z,95942.56
2022-11-27T01:34:20.103Z,95935.44
2022-11-27T01:39:27.925Z,95935.44
2022-11-27T01:41:55.954Z,95931.53
2022-11-27T01:44:43.176Z,95937.53
2022-11-27T01:47:13.696Z,95934.13
2022-11-27T01:49:43.586Z,95929.25
2022-11-27T01:52:11.920Z,95918.84
2022-11-27T01:54:43.984Z,95916.41
2022-11-27T01:59:55.506Z,95920.66
2022-11-27T02:02:23.068Z,95919.19
2022-11-27T02:04:51.355Z,95916.13
2022-11-27T02:07:25.657Z,95911.88
2022-11-27T02:09:52.340Z,95909.63
2022-11-27T02:12:34.076Z,95909.63
2022-11-27T02:15:08.907Z,95903.28
2022-11-27T02:17:41.277Z,95909.13
2022-11-27T02:20:18.942Z,95906.38
2022-11-27T02:22:56.569Z,95912.03
2022-11-27T02:25:30.779Z,95905.38
2022-11-27T02:28:22.359Z,95900.03
2022-11-27T02:30:57.106Z,95897.75
2022-11-27T02:36:08.151Z,95887.34
2022-11-27T02:38:38.387Z,95881.03
2022-11-27T02:41:06.920Z,95871.31
2022-11-27T02:43:35.785Z,95873.75
2022-11-27T02:46:05.563Z,95874.09
2022-11-27T02:48:34.718Z,95871.63
2022-11-27T02:51:02.463Z,95875.69
2022-11-27T02:53:32.929Z,95867.59
2022-11-27T02:56:00.904Z,95873.09
2022-11-27T02:58:28.309Z,95872.94
2022-11-27T03:00:56.575Z,95866.13
2022-11-27T03:03:25.907Z,95860.91
2022-11-27T03:05:54.607Z,95856.66
2022-11-27T03:08:24.113Z,95849.06
2022-11-27T03:10:54.744Z,95844.19
2022-11-27T03:13:21.793Z,95834.09
2022-11-27T03:15:55.737Z,95833.63
2022-11-27T03:18:25.408Z,95830.22
2022-11-27T03:20:58.071Z,95824.22
2022-11-27T03:23:24.762Z,95818.03
2022-11-27T03:25:51.599Z,95816.44
2022-11-27T03:28:18.720Z,95814.63
2022-11-27T03:30:45.309Z,95817.25
2022-11-27T03:33:11.892Z,95809.09
2022-11-27T03:35:39.183Z,95801.81
2022-11-27T03:38:07.449Z,95809.28
2022-11-27T03:40:39.239Z,95808.00
2022-11-27T03:43:09.715Z,95806.06
2022-11-27T03:45:38.996Z,95808.19
2022-11-27T03:48:11.120Z,95811.91
2022-11-27T03:50:46.088Z,95809.16
2022-11-27T03:53:22.907Z,95808.84
2022-11-27T03:55:53.793Z,95805.25
2022-11-27T03:58:22.838Z,95808.66
2022-11-27T04:00:51.085Z,95800.06
2022-11-27T04:03:22.851Z,95805.25
2022-11-27T04:05:49.605Z,95806.22
2022-11-27T04:08:17.778Z,95805.44
2022-11-27T04:10:44.444Z,95804.78
2022-11-27T04:13:11.008Z,95796.19
2022-11-27T04:15:37.629Z,95795.19
2022-11-27T04:18:04.396Z,95790.97
2022-11-27T04:20:31.031Z,95793.59
2022-11-27T04:22:57.568Z,95792.78
2022-11-27T04:25:26.084Z,95788.72
2022-11-27T04:27:52.769Z,95788.88
2022-11-27T04:30:19.839Z,95785.28
2022-11-27T04:32:46.680Z,95789.34
2022-11-27T04:35:13.188Z,95786.94
2022-11-27T04:37:39.710Z,95794.72
2022-11-27T04:40:06.840Z,95791.84
2022-11-27T04:42:34.930Z,95800.59
2022-11-27T04:45:01.670Z,95812.28
2022-11-27T04:47:28.225Z,95812.59
2022-11-27T04:49:54.756Z,95812.59
2022-11-27T04:52:21.376Z,95813.41
2022-11-27T04:54:47.979Z,95817.63
2022-11-27T04:57:14.465Z,95812.44
2022-11-27T04:59:42.391Z,95817.63
2022-11-27T05:02:08.971Z,95808.38
2022-11-27T05:04:35.593Z,95806.91
2022-11-27T05:07:02.113Z,95812.91
2022-11-27T05:09:28.656Z,95816.31
2022-11-27T05:11:55.334Z,95815.03
2022-11-27T05:14:24.108Z,95819.91
2022-11-27T05:16:54.053Z,95816.63
2022-11-27T05:19:23.054Z,95815.03
2022-11-27T05:21:50.434Z,95812.75
2022-11-27T05:24:17.936Z,95818.91
2022-11-27T05:26:44.573Z,95818.25
2022-11-27T05:29:12.085Z,95816.78
2022-11-27T05:31:38.989Z,95818.75
2022-11-27T05:34:07.045Z,95808.53
2022-11-27T05:36:33.771Z,95824.91
2022-11-27T05:39:00.295Z,95823.75
2022-11-27T05:41:27.128Z,95819.38
2022-11-27T05:43:53.661Z,95822.97
2022-11-27T05:46:21.111Z,95822.47
2022-11-27T05:48:48.119Z,95817.44
2022-11-27T05:51:16.474Z,95821.66
2022-11-27T05:53:43.144Z,95812.44
2022-11-27T05:56:10.949Z,95809.50
2022-11-27T05:58:37.916Z,95812.38
2022-11-27T06:01:04.929Z,95807.50
2022-11-27T06:03:31.613Z,95799.69
2022-11-27T06:05:58.241Z,95804.56
2022-11-27T06:08:26.072Z,95807.59
2022-11-27T06:10:52.627Z,95814.38
2022-11-27T06:13:19.114Z,95809.84
2022-11-27T06:15:45.907Z,95813.88
2022-11-27T06:18:12.949Z,95808.19
2022-11-27T06:20:43.762Z,95803.31
2022-11-27T06:23:11.298Z,95802.34
2022-11-27T06:25:39.141Z,95802.03
2022-11-27T06:28:05.660Z,95797.34
2022-11-27T06:30:32.187Z,95789.41
2022-11-27T06:32:58.966Z,95789.56
2022-11-27T06:35:25.472Z,95787.13
2022-11-27T06:37:51.959Z,95783.88
2022-11-27T06:40:18.563Z,95778.72
2022-11-27T06:42:46.607Z,95777.91
2022-11-27T06:45:13.946Z,95780.31
2022-11-27T06:47:40.550Z,95767.22
2022-11-27T06:50:07.425Z,95771.41
2022-11-27T06:52:38.832Z,95768.03
2022-11-27T06:55:07.426Z,95767.22
2022-11-27T06:57:33.990Z,95769.94
2022-11-27T07:00:02.016Z,95763.97
2022-11-27T07:02:28.634Z,95765.59
2022-11-27T07:04:55.162Z,95763.97
2022-11-27T07:07:21.777Z,95754.41
2022-11-27T07:09:48.421Z,95755.69
2022-11-27T07:12:14.993Z,95751.16
2022-11-27T07:14:42.065Z,95749.34
2022-11-27T07:17:10.268Z,95753.06
2022-11-27T07:19:36.789Z,95756.59
2022-11-27T07:22:03.346Z,95754.31
2022-11-27T07:24:29.913Z,95741.53
2022-11-27T07:26:56.643Z,95738.13
2022-11-27T07:29:23.253Z,95738.94
2022-11-27T07:31:51.393Z,95735.56
2022-11-27T07:34:21.750Z,95739.16
2022-11-27T07:36:48.579Z,95745.03
2022-11-27T07:39:17.532Z,95738.94
2022-11-27T07:41:48.747Z,95739.25
2022-11-27T07:44:15.276Z,95734.06
2022-11-27T07:46:42.003Z,95737.00
2022-11-27T07:49:08.505Z,95729.81
2022-11-27T07:51:36.405Z,95722.72
2022-11-27T07:54:02.965Z,95718.06
2022-11-27T07:56:30.599Z,95716.00
2022-11-27T07:58:57.937Z,95715.31
2022-11-27T08:01:24.529Z,95726.03
2022-11-27T08:03:51.115Z,95720.59
2022-11-27T08:06:18.680Z,95725.97
2022-11-27T08:08:46.989Z,95728.06
2022-11-27T08:11:17.361Z,95731.75
2022-11-27T08:13:43.915Z,95731.03
2022-11-27T08:16:10.536Z,95722.00
2022-11-27T08:18:37.092Z,95723.06
2022-11-27T08:21:03.647Z,95721.28
2022-11-27T08:23:30.156Z,95716.91
2022-11-27T08:25:58.066Z,95713.66
2022-11-27T08:28:24.761Z,95718.03
2022-11-27T08:30:55.878Z,95722.44
2022-11-27T08:33:22.389Z,95709.28
2022-11-27T08:35:49.035Z,95709.75
2022-11-27T08:38:15.604Z,95713.66
2022-11-27T08:40:42.200Z,95701.47
2022-11-27T08:43:10.141Z,95695.09
2022-11-27T08:45:37.826Z,95696.56
2022-11-27T08:48:04.657Z,95689.19
2022-11-27T08:50:31.285Z,95699.06
2022-11-27T08:52:57.828Z,95699.31
2022-11-27T08:55:24.497Z,95695.34
2022-11-27T08:57:51.264Z,95694.94
2022-11-27T09:00:26.426Z,95694.72
2022-11-27T09:02:54.429Z,95693.28
2022-11-27T09:05:21.085Z,95684.41
2022-11-27T09:07:47.856Z,95680.94
2022-11-27T09:10:14.460Z,95677.69
2022-11-27T09:12:43.564Z,95673.41
2022-11-27T09:15:11.030Z,95674.44
2022-11-27T09:17:38.973Z,95669.38
2022-11-27T09:20:06.351Z,95671.03
2022-11-27T09:22:33.571Z,95670.56
2022-11-27T09:25:00.242Z,95670.31
2022-11-27T09:27:27.439Z,95670.44
2022-11-27T09:29:53.937Z,95653.41
2022-11-27T09:32:22.207Z,95644.25
2022-11-27T09:34:51.266Z,95643.75
2022-11-27T09:37:17.995Z,95641.19
2022-11-27T09:39:44.533Z,95637.38
2022-11-27T09:42:18.428Z,95633.94
2022-11-27T09:44:48.528Z,95639.84
2022-11-27T09:47:18.781Z,95633.44
2022-11-27T09:49:48.045Z,95618.72
2022-11-27T09:52:20.202Z,95615.56
2022-11-27T09:54:52.609Z,95610.50
2022-11-27T09:57:23.422Z,95603.91
2022-11-27T09:59:52.336Z,95609.22
2022-11-27T10:02:21.757Z,95609.25
2022-11-27T10:05:12.474Z,95605.84
2022-11-27T10:07:43.175Z,95609.13
2022-11-27T10:10:20.405Z,95600.88
2022-11-27T10:12:51.151Z,95594.59
2022-11-27T10:15:22.383Z,95596.44
2022-11-27T10:17:52.313Z,95586.13
2022-11-27T10:20:28.780Z,95583.28
2022-11-27T10:23:00.131Z,95586.88
2022-11-27T10:25:29.497Z,95579.81
2022-11-27T10:28:11.390Z,95573.81
2022-11-27T10:30:41.920Z,95580.69
2022-11-27T10:33:13.194Z,95569.28
2022-11-27T10:35:40.456Z,95566.38
2022-11-27T10:38:11.547Z,95561.03
2022-11-27T10:40:40.265Z,95567.53
2022-11-27T10:43:10.515Z,95565.06
2022-11-27T10:45:39.429Z,95553.97
2022-11-27T10:48:06.605Z,95553.19
2022-11-27T10:50:34.043Z,95548.34
2022-11-27T10:53:02.833Z,95545.75
2022-11-27T10:55:39.059Z,95542.84
2022-11-27T10:58:09.774Z,95536.47
2022-11-27T11:00:36.415Z,95527.41
2022-11-27T11:03:04.408Z,95516.00
2022-11-27T11:05:45.572Z,95523.09
2022-11-27T11:08:19.928Z,95518.44
2022-11-27T11:10:51.910Z,95526.94
2022-11-27T11:13:19.837Z,95524.78
2022-11-27T11:15:51.876Z,95526.06
2022-11-27T11:18:19.343Z,95524.94
2022-11-27T11:20:47.829Z,95517.16
2022-11-27T11:23:21.051Z,95518.56
2022-11-27T11:25:49.439Z,95517.53
2022-11-27T11:28:18.570Z,95512.72
2022-11-27T11:30:52.668Z,95517.44
2022-11-27T11:33:19.350Z,95519.25
2022-11-27T11:35:52.155Z,95510.09
2022-11-27T11:38:19.307Z,95505.97
2022-11-27T11:40:56.998Z,95513.19
2022-11-27T11:43:27.267Z,95511.81
2022-11-27T11:45:53.971Z,95511.38
2022-11-27T11:48:21.667Z,95504.50
2022-11-27T11:50:52.992Z,95502.59
2022-11-27T11:53:23.274Z,95499.91
2022-11-27T11:55:55.060Z,95496.06
2022-11-27T11:58:38.291Z,95479.44
2022-11-27T12:01:30.871Z,95491.97
2022-11-27T12:06:59.548Z,95479.28
2022-11-27T12:09:45.815Z,95489.97
2022-11-27T12:12:26.491Z,95480.47
2022-11-27T12:17:58.033Z,95462.41
2022-11-27T12:23:50.230Z,95450.91
2022-11-27T12:26:27.169Z,95451.75
2022-11-27T12:29:04.523Z,95437.50
2022-11-27T12:41:23.132Z,95419.59
2022-11-27T12:49:33.629Z,95407.25
2022-11-27T12:52:06.243Z,95403.44
2022-11-27T12:57:47.372Z,95409.53
2022-11-27T13:03:14.272Z,95402.94
2022-11-27T13:05:49.920Z,95403.63
2022-11-27T13:11:08.743Z,95402.31
2022-11-27T13:13:42.955Z,95406.84
2022-11-27T13:16:15.579Z,95395.28
2022-11-27T13:18:49.155Z,95395.31
2022-11-27T13:21:20.696Z,95393.09
2022-11-27T13:23:51.634Z,95384.56
2022-11-27T13:26:27.594Z,95387.47
2022-11-27T13:28:59.285Z,95382.63
2022-11-27T13:31:37.808Z,95373.06
2022-11-27T13:34:11.628Z,95373.00
2022-11-27T13:36:49.497Z,95367.72
2022-11-27T13:42:07.815Z,95361.03
2022-11-27T13:47:27.100Z,95354.00
2022-11-27T13:50:03.159Z,95357.34
2022-11-27T13:52:30.555Z,95357.72
2022-11-27T13:55:01.212Z,95357.22
2022-11-27T14:00:16.594Z,95359.34
2022-11-27T14:05:41.884Z,95357.03
2022-11-27T14:08:22.719Z,95347.56
2022-11-27T14:10:54.454Z,95349.50
2022-11-27T14:19:22.530Z,95343.06
2022-11-27T14:24:44.041Z,95348.31
2022-11-27T14:33:06.786Z,95347.53
2022-11-27T14:35:34.280Z,95350.34
2022-11-27T14:40:54.139Z,95348.78
2022-11-27T14:46:18.368Z,95339.09
2022-11-27T14:51:36.834Z,95340.56
2022-11-27T15:08:01.761Z,95323.34
2022-11-27T15:10:38.141Z,95315.97
2022-11-27T15:13:07.073Z,95322.97
2022-11-27T15:21:37.731Z,95320.16
2022-11-27T15:30:19.119Z,95311.38
2022-11-27T15:35:35.006Z,95311.03
2022-11-27T15:46:59.074Z,95296.44
2022-11-27T15:49:29.707Z,95298.50
2022-11-27T23:38:48.786Z,94789.25
